Time;durP1;ratioP1;P1;durP2;ratioP2;P2;SDS_P1;SDS_P2;PMS_P1;PMS_P2;Temp;Humidity;BMP_temperature;BMP_pressure;BME280_temperature;BME280_humidity;BME280_pressure;Samples;Min_cycle;Max_cycle;Signal;HPM_P1;HPM_P2
2023/08/07 00:02:12;;;;;;;2.33;1.40;;;;;;;12.10;100.00;154468.19;4996528;28;20464;-83
2023/08/07 00:04:39;;;;;;;2.10;1.57;;;;;;;12.09;100.00;154465.63;5013191;28;20471;-83
2023/08/07 00:07:06;;;;;;;2.60;1.80;;;;;;;12.11;100.00;154469.50;5015936;28;20937;-83
2023/08/07 00:09:35;;;;;;;2.87;1.77;;;;;;;12.08;100.00;154463.03;5020433;28;20515;-82
2023/08/07 00:12:03;;;;;;;1.93;1.70;;;;;;;12.07;100.00;154459.16;5021633;28;20441;-83
2023/08/07 00:14:29;;;;;;;2.73;1.80;;;;;;;12.02;100.00;154447.44;5024155;28;20459;-83
2023/08/07 00:16:56;;;;;;;2.40;1.17;;;;;;;12.01;100.00;154444.91;4999993;28;20471;-83
2023/08/07 00:19:23;;;;;;;1.77;1.50;;;;;;;12.00;100.00;154442.28;5005412;28;20988;-83
2023/08/07 00:21:49;;;;;;;2.90;1.70;;;;;;;11.95;100.00;154429.31;5035820;28;20554;-82
2023/08/07 00:24:16;;;;;;;2.93;1.97;;;;;;;11.92;100.00;154421.53;5024335;28;20487;-83
2023/08/07 00:26:43;;;;;;;3.80;1.70;;;;;;;11.92;100.00;154420.22;5006773;28;20448;-83
2023/08/07 00:29:10;;;;;;;4.70;2.20;;;;;;;11.92;100.00;154421.53;5013031;28;20811;-82
2023/08/07 00:31:36;;;;;;;2.43;1.60;;;;;;;11.93;100.00;154422.84;5013989;28;20983;-82
2023/08/07 00:34:04;;;;;;;2.80;1.60;;;;;;;11.90;100.00;154415.06;4966480;28;20456;-82
2023/08/07 00:36:34;;;;;;;1.93;1.43;;;;;;;11.91;100.00;154418.97;4990219;28;20438;-82
2023/08/07 00:39:03;;;;;;;3.50;1.67;;;;;;;11.87;100.00;154408.56;4996958;28;20538;-82
2023/08/07 00:41:30;;;;;;;6.43;2.00;;;;;;;11.88;100.00;154409.88;4984305;28;20681;-82
2023/08/07 00:43:58;;;;;;;2.10;1.57;;;;;;;11.87;100.00;154407.28;4980347;28;20461;-82
2023/08/07 00:46:25;;;;;;;3.10;1.70;;;;;;;11.89;100.00;154413.75;4983432;28;20890;-82
2023/08/07 00:48:52;;;;;;;2.10;1.63;;;;;;;11.91;100.00;154418.97;5005133;28;20450;-83
2023/08/07 00:51:19;;;;;;;3.67;1.50;;;;;;;11.91;100.00;154418.97;4998113;28;20932;-82
2023/08/07 00:53:47;;;;;;;3.43;2.00;;;;;;;11.89;100.00;154413.75;4991443;28;20488;-82
2023/08/07 00:56:14;;;;;;;2.33;1.70;;;;;;;11.91;100.00;154417.66;4976681;28;20473;-83
2023/08/07 00:58:40;;;;;;;4.80;1.77;;;;;;;11.89;100.00;154412.44;4983607;28;20510;-82
2023/08/07 01:01:08;;;;;;;2.20;1.77;;;;;;;11.85;100.00;154403.41;4992956;28;20469;-82
2023/08/07 01:03:35;;;;;;;2.20;1.90;;;;;;;11.85;100.00;154403.41;4974452;28;20455;-82
2023/08/07 01:06:02;;;;;;;2.73;1.60;;;;;;;11.83;100.00;154398.22;4991521;28;20459;-82
2023/08/07 01:08:29;;;;;;;3.00;1.77;;;;;;;11.83;100.00;154398.22;4989835;28;20455;-82
2023/08/07 01:11:08;;;;;;;2.70;2.00;;;;;;;11.80;100.00;154390.44;4963574;28;20491;-82
2023/08/07 01:13:38;;;;;;;2.17;1.80;;;;;;;11.80;100.00;154390.44;5002438;28;21207;-82
2023/08/07 01:16:17;;;;;;;2.63;1.90;;;;;;;11.79;100.00;154387.84;5016766;28;20484;-82
2023/08/07 01:18:45;;;;;;;1.97;1.60;;;;;;;11.81;100.00;154391.75;4983246;28;20463;-82
2023/08/07 01:21:18;;;;;;;2.03;1.40;;;;;;;11.83;100.00;154398.22;4982830;28;20448;-82
2023/08/07 01:23:46;;;;;;;2.70;1.90;;;;;;;11.84;100.00;154400.78;4989214;28;20686;-82
2023/08/07 01:26:13;;;;;;;2.37;1.50;;;;;;;11.82;100.00;154395.63;4996822;28;20460;-83
2023/08/07 01:28:44;;;;;;;2.60;2.00;;;;;;;11.83;100.00;154398.22;5000067;28;20456;-82
2023/08/07 01:31:15;;;;;;;3.03;1.97;;;;;;;11.81;100.00;154393.00;5008823;28;20486;-82
2023/08/07 01:33:48;;;;;;;2.30;1.60;;;;;;;11.78;100.00;154385.22;4991192;28;20542;-82
2023/08/07 01:36:15;;;;;;;2.60;1.80;;;;;;;11.80;100.00;154389.16;5028048;28;20449;-82
2023/08/07 01:38:42;;;;;;;2.60;1.67;;;;;;;11.80;100.00;154390.44;5013281;28;20835;-82
2023/08/07 01:41:10;;;;;;;2.60;2.30;;;;;;;11.81;100.00;154393.00;4987361;28;20989;-81
2023/08/07 01:43:37;;;;;;;2.00;1.73;;;;;;;11.79;100.00;154386.53;4996059;28;20462;-81
2023/08/07 01:46:06;;;;;;;2.87;1.80;;;;;;;11.78;100.00;154385.22;5005114;28;20887;-81
2023/08/07 01:48:33;;;;;;;2.87;1.73;;;;;;;11.76;100.00;154380.06;5024317;28;20494;-82
2023/08/07 01:50:59;;;;;;;2.60;1.87;;;;;;;11.76;100.00;154380.06;4996099;28;20573;-82
2023/08/07 01:53:26;;;;;;;2.13;1.30;;;;;;;11.77;100.00;154382.66;5000751;28;20454;-81
2023/08/07 01:55:52;;;;;;;2.83;1.80;;;;;;;11.76;100.00;154380.06;5006541;28;20469;-82
2023/08/07 01:58:20;;;;;;;4.20;1.90;;;;;;;11.76;100.00;154380.06;5033768;28;20976;-82
2023/08/07 02:00:47;;;;;;;3.03;2.20;;;;;;;11.76;100.00;154380.06;5001031;28;20473;-82
2023/08/07 02:03:13;;;;;;;3.03;1.70;;;;;;;11.75;100.00;154377.50;5000090;28;20440;-82
2023/08/07 02:05:40;;;;;;;2.27;1.70;;;;;;;11.77;100.00;154382.66;5007151;28;20472;-81
2023/08/07 02:08:06;;;;;;;2.10;1.63;;;;;;;11.75;100.00;154377.50;5004386;28;20448;-82
2023/08/07 02:10:34;;;;;;;2.83;1.80;;;;;;;11.75;100.00;154377.50;4995743;28;20537;-81
2023/08/07 02:13:00;;;;;;;3.77;1.90;;;;;;;11.75;100.00;154376.19;5002500;28;20973;-81
2023/08/07 02:15:28;;;;;;;2.40;1.90;;;;;;;11.77;100.00;154381.38;4995280;28;20463;-82
2023/08/07 02:17:54;;;;;;;1.80;1.30;;;;;;;11.79;100.00;154387.84;5036865;28;20458;-82
2023/08/07 02:20:21;;;;;;;1.90;1.57;;;;;;;11.77;100.00;154382.66;4990177;28;20460;-82
2023/08/07 02:22:48;;;;;;;2.60;1.73;;;;;;;11.77;100.00;154381.38;5008611;28;20859;-81
2023/08/07 02:25:14;;;;;;;3.40;1.73;;;;;;;11.76;100.00;154380.06;4988997;28;20802;-81
2023/08/07 02:27:41;;;;;;;4.10;2.10;;;;;;;11.78;100.00;154383.97;5020777;28;20562;-82
2023/08/07 02:30:08;;;;;;;3.87;1.67;;;;;;;11.77;100.00;154381.38;5019207;28;20477;-82
2023/08/07 02:32:36;;;;;;;2.30;1.73;;;;;;;11.77;100.00;154381.38;4986259;28;20483;-82
2023/08/07 02:35:03;;;;;;;3.90;2.10;;;;;;;11.77;100.00;154382.66;5019930;28;20456;-82
2023/08/07 02:37:29;;;;;;;2.13;1.50;;;;;;;11.80;100.00;154390.44;5018408;28;20540;-82
2023/08/07 02:39:56;;;;;;;3.30;2.20;;;;;;;11.78;100.00;154383.97;4995980;28;20463;-81
2023/08/07 02:42:22;;;;;;;2.57;1.67;;;;;;;11.76;100.00;154378.75;5000873;28;20463;-81
2023/08/07 02:44:49;;;;;;;3.30;1.80;;;;;;;11.71;100.00;154365.81;5011211;28;20454;-81
2023/08/07 02:47:16;;;;;;;2.73;2.17;;;;;;;11.68;100.00;154359.28;4998987;28;20459;-81
2023/08/07 02:49:44;;;;;;;2.07;1.70;;;;;;;11.66;100.00;154354.09;4999580;28;20524;-81
2023/08/07 02:52:10;;;;;;;3.00;2.00;;;;;;;11.64;100.00;154348.94;4990289;28;20454;-81
2023/08/07 02:54:37;;;;;;;2.93;1.90;;;;;;;11.63;100.00;154346.31;4985236;28;21088;-81
2023/08/07 02:57:04;;;;;;;2.80;2.10;;;;;;;11.62;100.00;154343.75;5021931;28;20445;-81
2023/08/07 02:59:30;;;;;;;5.03;3.03;;;;;;;11.63;100.00;154346.31;4984756;28;20460;-81
2023/08/07 03:01:57;;;;;;;3.00;1.90;;;;;;;11.59;100.00;154337.28;4974545;28;20459;-81
2023/08/07 03:04:23;;;;;;;3.60;2.30;;;;;;;11.59;100.00;154335.97;4981881;28;20925;-82
2023/08/07 03:06:51;;;;;;;6.13;1.93;;;;;;;11.60;100.00;154338.53;5007906;28;20491;-82
2023/08/07 03:09:18;;;;;;;3.00;1.60;;;;;;;11.59;100.00;154335.97;5029220;28;20457;-81
2023/08/07 03:11:44;;;;;;;5.30;2.70;;;;;;;11.55;100.00;154325.59;5008832;28;20476;-81
2023/08/07 03:14:11;;;;;;;2.33;1.87;;;;;;;11.52;100.00;154317.81;4983284;28;20459;-81
2023/08/07 03:16:37;;;;;;;3.73;2.20;;;;;;;11.51;100.00;154315.25;4990973;28;20456;-81
2023/08/07 03:19:04;;;;;;;2.80;1.80;;;;;;;11.49;100.00;154310.06;4994721;28;20460;-82
2023/08/07 03:21:31;;;;;;;3.50;1.50;;;;;;;11.48;100.00;154307.47;4974769;28;20441;-81
2023/08/07 03:23:59;;;;;;;2.93;1.73;;;;;;;11.45;100.00;154299.69;5003721;28;20546;-81
2023/08/07 03:26:26;;;;;;;2.70;2.17;;;;;;;11.41;100.00;154290.59;5026161;28;20491;-81
2023/08/07 03:28:52;;;;;;;2.33;1.57;;;;;;;11.39;100.00;154284.13;5012383;28;20862;-81
2023/08/07 03:31:20;;;;;;;2.70;1.90;;;;;;;11.34;100.00;154272.47;4985090;28;21031;-81
2023/08/07 03:33:47;;;;;;;3.10;1.87;;;;;;;11.33;100.00;154268.59;5022839;28;20458;-81
2023/08/07 03:36:15;;;;;;;2.10;1.70;;;;;;;11.32;100.00;154266.00;5022254;28;20465;-81
2023/08/07 03:38:42;;;;;;;3.60;1.97;;;;;;;11.35;100.00;154273.78;5024058;28;20462;-81
2023/08/07 03:41:10;;;;;;;3.20;2.27;;;;;;;11.33;100.00;154268.59;5011566;28;20458;-81
2023/08/07 03:43:39;;;;;;;4.60;1.70;;;;;;;11.33;100.00;154268.59;4997056;28;20513;-81
2023/08/07 03:46:05;;;;;;;3.67;1.50;;;;;;;11.32;100.00;154266.00;5003891;28;20468;-81
2023/08/07 03:48:32;;;;;;;4.10;1.63;;;;;;;11.30;100.00;154260.81;5006601;28;20836;-81
2023/08/07 03:51:04;;;;;;;2.57;1.67;;;;;;;11.27;100.00;154253.03;4989695;28;20566;-81
2023/08/07 03:53:31;;;;;;;2.30;1.70;;;;;;;11.30;100.00;154260.81;5025505;28;20460;-81
2023/08/07 03:55:57;;;;;;;5.80;1.60;;;;;;;11.29;100.00;154258.22;5016174;28;20497;-81
2023/08/07 03:58:25;;;;;;;2.80;1.70;;;;;;;11.29;100.00;154258.22;5006794;28;20451;-81
2023/08/07 04:00:52;;;;;;;2.90;1.20;;;;;;;11.29;100.00;154258.22;5002250;28;20553;-80
2023/08/07 04:03:19;;;;;;;5.10;1.70;;;;;;;11.27;100.00;154253.03;5021032;28;20487;-81
2023/08/07 04:05:46;;;;;;;3.90;2.30;;;;;;;11.27;100.00;154254.34;5024352;28;20977;-81
2023/08/07 04:08:12;;;;;;;2.77;1.70;;;;;;;11.25;100.00;154247.88;5017345;28;20447;-81
2023/08/07 04:10:39;;;;;;;6.03;1.70;;;;;;;11.25;100.00;154249.13;5022710;28;20567;-81
2023/08/07 04:13:05;;;;;;;4.00;2.10;;;;;;;11.24;100.00;154246.56;5006415;28;20793;-81
2023/08/07 04:15:33;;;;;;;2.30;1.67;;;;;;;11.23;100.00;154242.66;5013870;28;20482;-81
2023/08/07 04:18:01;;;;;;;3.80;1.80;;;;;;;11.23;100.00;154242.66;4989090;28;20477;-81
2023/08/07 04:20:27;;;;;;;3.73;1.60;;;;;;;11.21;100.00;154238.78;5010737;28;20469;-81
2023/08/07 04:22:54;;;;;;;2.20;1.50;;;;;;;11.18;100.00;154231.00;5007541;28;20466;-81
2023/08/07 04:25:20;;;;;;;2.80;1.90;;;;;;;11.16;100.00;154224.53;5027291;28;20461;-81
2023/08/07 04:27:47;;;;;;;2.83;1.90;;;;;;;11.14;100.00;154219.38;5006430;28;20928;-81
2023/08/07 04:30:13;;;;;;;3.33;1.57;;;;;;;11.10;100.00;154210.28;5023225;28;20595;-81
2023/08/07 04:32:41;;;;;;;2.37;1.60;;;;;;;11.12;100.00;154214.19;5017646;28;20551;-81
2023/08/07 04:35:09;;;;;;;4.07;1.83;;;;;;;11.13;100.00;154218.06;5029724;28;20546;-81
2023/08/07 04:37:35;;;;;;;2.93;2.00;;;;;;;11.08;100.00;154203.81;5016320;28;20467;-81
2023/08/07 04:40:02;;;;;;;5.77;2.00;;;;;;;11.12;100.00;154214.19;5031853;28;20462;-81
2023/08/07 04:42:29;;;;;;;3.37;2.07;;;;;;;11.14;100.00;154219.38;5029733;28;20472;-81
2023/08/07 04:44:55;;;;;;;3.27;1.80;;;;;;;11.14;100.00;154219.38;5001388;28;20455;-81
2023/08/07 04:47:22;;;;;;;2.47;1.70;;;;;;;11.15;100.00;154223.22;5022210;28;20459;-81
2023/08/07 04:49:50;;;;;;;2.30;1.70;;;;;;;11.20;100.00;154236.19;5022430;28;20988;-81
2023/08/07 04:52:16;;;;;;;2.20;1.47;;;;;;;11.17;100.00;154228.44;5044842;28;20473;-81
2023/08/07 04:54:43;;;;;;;4.17;1.70;;;;;;;11.17;100.00;154227.16;5026729;28;20455;-81
2023/08/07 04:57:09;;;;;;;2.57;1.80;;;;;;;11.19;100.00;154232.31;5023185;28;20478;-81
2023/08/07 04:59:36;;;;;;;3.90;2.40;;;;;;;11.20;100.00;154234.94;5032853;28;20541;-81
2023/08/07 05:02:02;;;;;;;2.03;1.60;;;;;;;11.23;100.00;154242.66;4998229;28;20446;-81
2023/08/07 05:04:29;;;;;;;3.73;2.40;;;;;;;11.24;100.00;154246.56;5017392;28;20458;-81
2023/08/07 05:06:57;;;;;;;4.63;1.60;;;;;;;11.26;100.00;154250.44;5002775;28;20446;-81
2023/08/07 05:09:23;;;;;;;2.40;1.67;;;;;;;11.26;100.00;154250.44;4999515;28;20461;-81
2023/08/07 05:11:50;;;;;;;3.93;1.60;;;;;;;11.25;100.00;154247.88;5019549;28;20471;-81
2023/08/07 05:14:16;;;;;;;3.70;1.80;;;;;;;11.28;100.00;154255.66;5017718;28;20460;-81
2023/08/07 05:16:43;;;;;;;2.73;1.90;;;;;;;11.30;100.00;154262.13;5019910;28;20464;-82
2023/08/07 05:19:10;;;;;;;3.33;1.80;;;;;;;11.32;100.00;154267.31;4997660;28;20462;-81
2023/08/07 05:21:36;;;;;;;2.57;1.50;;;;;;;11.38;100.00;154281.56;5012677;28;20453;-82
2023/08/07 05:24:05;;;;;;;3.60;1.60;;;;;;;11.39;100.00;154284.13;5011204;28;20955;-81
2023/08/07 05:26:32;;;;;;;3.60;1.93;;;;;;;11.39;100.00;154285.41;5014386;28;20455;-81
2023/08/07 05:28:58;;;;;;;2.73;1.90;;;;;;;11.40;100.00;154286.72;5001306;28;20771;-81
2023/08/07 05:31:25;;;;;;;4.93;2.60;;;;;;;11.39;100.00;154284.13;5002936;28;20498;-81
2023/08/07 05:33:52;;;;;;;2.07;1.40;;;;;;;11.42;100.00;154291.91;5035452;28;20467;-81
2023/08/07 05:36:19;;;;;;;4.27;1.73;;;;;;;11.42;100.00;154293.19;5019945;28;20456;-81
2023/08/07 05:38:45;;;;;;;3.17;2.10;;;;;;;11.46;100.00;154302.28;5016069;28;20494;-80
2023/08/07 05:41:13;;;;;;;2.80;1.93;;;;;;;11.45;100.00;154300.97;5011875;28;20801;-81
2023/08/07 05:43:40;;;;;;;2.00;1.40;;;;;;;11.47;100.00;154306.16;4997124;28;20466;-80
2023/08/07 05:46:06;;;;;;;2.90;1.87;;;;;;;11.52;100.00;154317.81;5016190;28;20472;-81
2023/08/07 05:48:33;;;;;;;4.30;1.93;;;;;;;11.56;100.00;154328.19;4996757;28;20457;-81
2023/08/07 05:51:00;;;;;;;2.83;1.83;;;;;;;11.58;100.00;154333.38;5001081;28;20496;-81
2023/08/07 05:53:26;;;;;;;2.43;1.70;;;;;;;11.60;100.00;154338.53;5003170;28;20448;-82
2023/08/07 05:55:53;;;;;;;2.50;1.87;;;;;;;11.60;100.00;154338.53;5003177;28;20460;-81
2023/08/07 05:58:21;;;;;;;4.33;2.17;;;;;;;11.67;100.00;154356.72;5002410;28;20452;-81
2023/08/07 06:00:47;;;;;;;2.47;1.40;;;;;;;11.70;100.00;154364.53;4996514;28;20478;-81
2023/08/07 06:03:14;;;;;;;3.03;1.97;;;;;;;11.73;100.00;154371.03;5017202;28;20490;-81
2023/08/07 06:05:40;;;;;;;2.67;1.47;;;;;;;11.75;100.00;154377.50;5018617;28;21002;-81
2023/08/07 06:08:07;;;;;;;2.23;1.40;;;;;;;11.79;100.00;154387.84;5005301;28;20456;-82
2023/08/07 06:10:33;;;;;;;3.53;2.20;;;;;;;11.82;100.00;154394.31;5022230;28;20495;-82
2023/08/07 06:13:00;;;;;;;2.87;2.30;;;;;;;11.90;100.00;154416.38;5005446;28;20471;-81
2023/08/07 06:15:28;;;;;;;2.00;1.50;;;;;;;11.93;100.00;154424.16;5005312;28;20560;-82
2023/08/07 06:17:55;;;;;;;2.60;1.70;;;;;;;11.96;100.00;154431.94;5006824;28;20456;-83
2023/08/07 06:20:22;;;;;;;3.17;2.13;;;;;;;11.97;100.00;154433.19;5008401;28;20455;-81
2023/08/07 06:22:48;;;;;;;2.80;1.80;;;;;;;12.01;100.00;154444.91;5021736;28;20578;-82
2023/08/07 06:25:15;;;;;;;2.80;2.37;;;;;;;12.01;100.00;154444.91;5021269;28;20463;-81
2023/08/07 06:27:41;;;;;;;2.90;1.70;;;;;;;12.02;100.00;154447.44;5004498;28;20471;-81
2023/08/07 06:30:09;;;;;;;2.23;1.80;;;;;;;12.04;100.00;154452.69;5003491;28;20483;-82
2023/08/07 06:32:37;;;;;;;6.07;2.37;;;;;;;12.07;100.00;154460.41;4998756;28;20491;-81
2023/08/07 06:35:05;;;;;;;2.93;1.90;;;;;;;12.11;100.00;154470.81;5014060;28;20465;-82
2023/08/07 06:37:31;;;;;;;3.07;1.73;;;;;;;12.16;100.00;154483.78;5014602;28;20458;-81
2023/08/07 06:39:58;;;;;;;3.03;1.60;;;;;;;12.24;100.00;154503.19;4999404;28;20507;-81
2023/08/07 06:42:25;;;;;;;3.50;1.83;;;;;;;12.28;100.00;154513.59;4998429;28;20457;-82
2023/08/07 06:44:51;;;;;;;2.70;1.57;;;;;;;12.35;99.91;154530.44;4997382;28;20550;-81
2023/08/07 06:47:18;;;;;;;2.87;1.43;;;;;;;12.40;99.76;154544.69;5000323;28;20448;-82
2023/08/07 06:49:46;;;;;;;2.60;1.87;;;;;;;12.45;100.00;154556.34;5002465;28;20834;-81
2023/08/07 06:52:13;;;;;;;2.70;2.20;;;;;;;12.50;100.00;154569.31;5015586;28;20898;-82
2023/08/07 06:54:39;;;;;;;2.43;1.83;;;;;;;12.56;100.00;154584.91;5020140;28;20461;-82
2023/08/07 06:57:06;;;;;;;2.80;1.80;;;;;;;12.63;100.00;154604.34;5019529;28;20453;-81
2023/08/07 06:59:33;;;;;;;3.40;2.90;;;;;;;12.68;99.15;154616.03;5016565;28;20467;-81
2023/08/07 07:01:59;;;;;;;3.80;1.73;;;;;;;12.75;99.13;154634.19;5017626;28;20448;-81
2023/08/07 07:04:26;;;;;;;5.63;2.10;;;;;;;12.81;100.00;154649.75;5022382;28;20460;-82
2023/08/07 07:06:54;;;;;;;2.07;1.70;;;;;;;12.86;99.07;154662.72;5015099;28;20784;-82
2023/08/07 07:09:20;;;;;;;6.63;2.10;;;;;;;12.97;99.28;154691.28;5005937;28;20480;-82
2023/08/07 07:11:47;;;;;;;3.83;2.07;;;;;;;13.00;99.27;154699.03;5017263;28;20477;-83
2023/08/07 07:14:13;;;;;;;2.53;1.60;;;;;;;13.04;98.53;154708.13;5017506;28;20457;-82
2023/08/07 07:16:41;;;;;;;3.17;1.50;;;;;;;13.06;96.28;154713.28;5003108;28;20476;-82
2023/08/07 07:19:09;;;;;;;6.00;2.10;;;;;;;13.16;94.44;154740.59;5016579;28;20445;-81
2023/08/07 07:21:36;;;;;;;2.77;1.70;;;;;;;13.19;93.94;154747.06;5016192;28;20441;-82
2023/08/07 07:24:04;;;;;;;4.90;1.80;;;;;;;13.22;93.06;154754.88;5015304;28;20501;-82
2023/08/07 07:26:30;;;;;;;2.77;1.87;;;;;;;13.24;94.91;154761.34;5019845;28;20450;-82
2023/08/07 07:28:57;;;;;;;2.10;1.80;;;;;;;13.27;93.98;154769.13;5010853;28;20457;-82
2023/08/07 07:31:24;;;;;;;5.07;1.93;;;;;;;13.23;92.83;154757.47;5036081;28;20477;-82
2023/08/07 07:33:50;;;;;;;2.40;1.63;;;;;;;13.24;94.24;154761.34;5003087;28;21062;-82
2023/08/07 07:36:17;;;;;;;3.03;1.77;;;;;;;13.25;94.35;154763.97;5010535;28;20448;-82
2023/08/07 07:38:44;;;;;;;2.63;1.43;;;;;;;13.26;94.78;154766.53;4998602;28;20452;-83
2023/08/07 07:41:12;;;;;;;2.80;1.43;;;;;;;13.26;93.31;154766.53;5016686;28;20556;-82
2023/08/07 07:43:38;;;;;;;2.70;1.40;;;;;;;13.31;94.07;154779.56;5002117;28;20452;-82
2023/08/07 07:46:05;;;;;;;2.63;1.50;;;;;;;13.34;94.36;154787.28;5017398;28;20469;-83
2023/08/07 07:48:32;;;;;;;3.30;2.10;;;;;;;13.41;94.97;154805.50;5016709;28;20835;-82
2023/08/07 07:50:59;;;;;;;2.23;1.60;;;;;;;13.48;93.09;154822.34;5016067;28;20496;-82
2023/08/07 07:53:26;;;;;;;2.40;1.80;;;;;;;13.77;92.34;154897.63;5015138;28;20476;-83
2023/08/07 07:55:52;;;;;;;2.10;1.70;;;;;;;13.90;92.31;154931.38;4998395;28;20468;-82
2023/08/07 07:58:20;;;;;;;2.00;1.50;;;;;;;13.95;90.95;154943.09;5014585;28;20449;-82
2023/08/07 08:00:47;;;;;;;3.50;1.60;;;;;;;13.97;91.75;154948.25;5000275;28;20467;-82
2023/08/07 08:03:13;;;;;;;1.97;1.73;;;;;;;13.98;89.32;154952.13;5000872;28;20726;-82
2023/08/07 08:05:40;;;;;;;2.40;1.63;;;;;;;14.00;88.82;154956.06;5014838;28;20538;-83
2023/08/07 08:08:07;;;;;;;2.20;1.40;;;;;;;14.05;88.23;154969.03;5013911;28;20450;-83
2023/08/07 08:10:34;;;;;;;2.70;1.70;;;;;;;14.18;85.87;155002.78;5001317;28;20880;-83
2023/08/07 08:13:03;;;;;;;3.17;1.30;;;;;;;14.20;85.42;155007.97;5000464;28;20689;-82
2023/08/07 08:15:31;;;;;;;2.83;1.73;;;;;;;14.21;86.85;155010.59;4999540;28;20549;-84
2023/08/07 08:17:58;;;;;;;2.23;1.47;;;;;;;14.14;88.54;154991.13;4999017;28;20469;-82
2023/08/07 08:20:24;;;;;;;2.40;1.73;;;;;;;14.03;86.19;154963.84;5019132;28;20550;-82
2023/08/07 08:22:51;;;;;;;2.20;1.70;;;;;;;14.00;85.84;154956.06;5015463;28;20456;-82
2023/08/07 08:25:18;;;;;;;3.90;1.40;;;;;;;13.97;83.10;154948.25;5015987;28;20453;-82
2023/08/07 08:27:45;;;;;;;2.83;1.57;;;;;;;13.96;83.21;154945.66;5015502;28;20519;-83
2023/08/07 08:30:12;;;;;;;1.87;1.23;;;;;;;13.96;84.51;154945.66;4999940;28;20454;-82
2023/08/07 08:32:40;;;;;;;2.23;1.50;;;;;;;14.00;83.19;154956.06;5014245;28;20542;-82
2023/08/07 08:35:07;;;;;;;2.77;1.80;;;;;;;13.98;86.02;154952.13;5016553;28;20480;-82
2023/08/07 08:37:34;;;;;;;1.90;1.40;;;;;;;14.02;87.35;154962.56;5001893;28;20556;-82
2023/08/07 08:40:01;;;;;;;2.63;1.83;;;;;;;14.08;89.29;154976.84;5014992;28;20470;-83
2023/08/07 08:42:28;;;;;;;2.10;1.37;;;;;;;14.21;89.09;155009.28;5002677;28;20455;-82
2023/08/07 08:44:56;;;;;;;1.60;1.30;;;;;;;14.28;84.25;155028.75;5015789;28;20467;-83
2023/08/07 08:47:26;;;;;;;2.30;1.57;;;;;;;14.43;84.91;155067.75;5016425;28;20449;-83
2023/08/07 08:49:56;;;;;;;2.13;1.17;;;;;;;14.49;83.87;155082.03;5015156;28;20459;-82
2023/08/07 08:52:23;;;;;;;2.53;1.97;;;;;;;14.51;81.16;155087.22;5000355;28;20484;-82
2023/08/07 08:54:50;;;;;;;1.80;1.20;;;;;;;14.69;79.81;155132.72;5001217;28;20490;-82
2023/08/07 08:57:17;;;;;;;2.90;1.27;;;;;;;14.83;82.79;155170.34;5015809;28;20453;-84
2023/08/07 08:59:44;;;;;;;1.50;1.00;;;;;;;14.88;79.83;155183.34;5004421;28;20817;-83
2023/08/07 09:02:11;;;;;;;2.73;1.10;;;;;;;14.97;78.56;155206.75;5013714;28;20527;-84
2023/08/07 09:04:37;;;;;;;1.80;1.20;;;;;;;15.02;77.80;155219.75;4999476;28;20508;-83
2023/08/07 09:07:06;;;;;;;2.40;1.70;;;;;;;15.18;79.67;155261.31;5000461;28;20457;-84
2023/08/07 09:09:32;;;;;;;2.10;1.27;;;;;;;15.35;76.72;155304.22;4999024;28;20968;-84
2023/08/07 09:11:59;;;;;;;2.37;1.20;;;;;;;15.38;79.55;155311.97;4999891;28;20489;-83
2023/08/07 09:14:30;;;;;;;2.40;1.37;;;;;;;15.37;80.15;155308.09;5013740;28;20971;-84
2023/08/07 09:16:58;;;;;;;1.67;1.13;;;;;;;15.48;78.14;155336.75;5014669;28;20516;-83
2023/08/07 09:19:25;;;;;;;1.80;1.33;;;;;;;15.52;77.88;155347.13;5013764;28;20911;-84
2023/08/07 09:21:52;;;;;;;1.43;1.00;;;;;;;15.58;77.40;155362.75;5014303;28;20453;-83
2023/08/07 09:24:22;;;;;;;2.53;1.40;;;;;;;15.63;79.07;155377.03;5015187;28;20460;-83
2023/08/07 09:26:49;;;;;;;3.30;1.40;;;;;;;15.58;79.39;155362.75;5014965;28;20460;-83
2023/08/07 09:29:15;;;;;;;1.50;0.93;;;;;;;15.59;80.55;155366.66;4998397;28;20452;-84
2023/08/07 09:31:45;;;;;;;2.00;1.30;;;;;;;15.67;73.91;155386.16;4997803;28;20493;-83
2023/08/07 09:34:13;;;;;;;1.80;1.20;;;;;;;15.68;74.41;155390.03;5013382;28;20464;-83
2023/08/07 09:36:40;;;;;;;2.27;1.83;;;;;;;15.64;75.46;155379.66;5013662;28;20816;-83
2023/08/07 09:39:06;;;;;;;2.07;1.07;;;;;;;15.70;71.42;155393.97;5001428;28;20849;-83
2023/08/07 09:41:35;;;;;;;1.80;1.10;;;;;;;15.83;72.68;155427.75;5010966;28;20484;-83
2023/08/07 09:44:07;;;;;;;1.97;1.23;;;;;;;15.92;74.63;155449.81;4996640;28;20523;-84
2023/08/07 09:46:41;;;;;;;1.83;1.10;;;;;;;16.03;72.83;155478.44;5000281;28;20528;-84
2023/08/07 09:49:08;;;;;;;1.30;1.00;;;;;;;16.10;73.51;155496.63;5013216;28;20804;-83
2023/08/07 09:51:42;;;;;;;2.30;1.30;;;;;;;16.11;72.96;155499.25;5013814;28;20453;-83
2023/08/07 09:54:09;;;;;;;2.20;1.30;;;;;;;16.09;75.68;155494.06;4997370;28;20525;-83
2023/08/07 09:56:37;;;;;;;2.03;1.30;;;;;;;16.04;73.22;155482.38;4997346;28;20548;-83
2023/08/07 09:59:04;;;;;;;1.73;1.40;;;;;;;16.04;75.18;155481.06;5011498;28;20560;-83
2023/08/07 10:01:31;;;;;;;1.70;1.20;;;;;;;16.03;76.05;155479.75;5000715;28;20823;-83
2023/08/07 10:03:58;;;;;;;1.40;0.90;;;;;;;16.06;77.23;155486.25;4998878;28;20449;-83
2023/08/07 10:06:24;;;;;;;1.80;1.20;;;;;;;16.13;75.42;155504.44;5015311;28;20511;-84
2023/08/07 10:08:51;;;;;;;2.47;1.30;;;;;;;16.23;75.13;155530.47;5016851;28;21070;-84
2023/08/07 10:11:18;;;;;;;1.80;1.20;;;;;;;16.31;77.54;155551.25;5015452;28;20465;-84
2023/08/07 10:13:46;;;;;;;1.70;1.40;;;;;;;16.40;76.02;155574.66;5014860;28;20581;-84
2023/08/07 10:16:13;;;;;;;2.00;1.40;;;;;;;16.57;75.79;155617.66;4998339;28;20452;-84
2023/08/07 10:18:39;;;;;;;2.10;1.53;;;;;;;16.76;76.99;155668.38;5013501;28;20449;-84
2023/08/07 10:21:07;;;;;;;2.20;1.40;;;;;;;16.81;74.70;155681.38;4997528;28;20457;-84
2023/08/07 10:23:35;;;;;;;2.40;1.23;;;;;;;16.88;71.90;155699.63;5031252;28;20460;-84
2023/08/07 10:26:03;;;;;;;2.10;1.50;;;;;;;17.03;71.97;155738.63;4999864;28;20452;-84
2023/08/07 10:28:30;;;;;;;2.30;1.80;;;;;;;17.09;69.61;155751.63;5015486;28;20906;-84
2023/08/07 10:30:58;;;;;;;2.00;1.40;;;;;;;17.19;70.07;155777.66;5014423;28;20445;-84
2023/08/07 10:33:25;;;;;;;2.17;1.37;;;;;;;17.21;72.35;155782.91;5012802;28;20502;-84
2023/08/07 10:35:52;;;;;;;2.70;1.50;;;;;;;17.16;70.27;155769.84;5013125;28;20457;-84
2023/08/07 10:38:21;;;;;;;1.67;1.03;;;;;;;17.18;71.98;155776.41;4998667;28;20465;-84
2023/08/07 10:41:01;;;;;;;2.73;1.40;;;;;;;17.16;67.95;155771.16;5013953;28;20896;-84
2023/08/07 10:43:29;;;;;;;4.53;1.73;;;;;;;17.12;66.67;155759.47;5014553;28;20792;-84
2023/08/07 10:45:55;;;;;;;1.83;1.30;;;;;;;17.09;69.24;155751.63;4998973;28;20460;-83
2023/08/07 10:48:23;;;;;;;2.17;1.20;;;;;;;17.04;65.13;155741.25;4997844;28;20472;-83
2023/08/07 10:50:52;;;;;;;1.80;1.30;;;;;;;16.98;72.26;155725.63;5013498;28;20475;-83
2023/08/07 10:53:20;;;;;;;1.93;1.57;;;;;;;16.89;71.56;155702.19;5011455;28;20588;-83
2023/08/07 10:55:47;;;;;;;1.83;1.07;;;;;;;16.79;71.25;155674.88;4998225;28;20457;-83
2023/08/07 10:58:24;;;;;;;2.00;1.50;;;;;;;16.72;66.66;155657.97;4997812;28;20591;-83
2023/08/07 11:01:09;;;;;;;1.70;1.20;;;;;;;16.74;73.41;155661.88;4994517;28;20641;-82
2023/08/07 11:03:37;;;;;;;1.90;1.40;;;;;;;16.67;71.47;155643.66;4987403;28;20459;-78
2023/08/07 11:06:04;;;;;;;2.10;1.50;;;;;;;16.58;69.83;155621.53;4994322;28;21021;-78
2023/08/07 11:08:31;;;;;;;2.70;1.90;;;;;;;16.63;71.22;155633.22;4996022;28;20468;-78
2023/08/07 11:10:59;;;;;;;2.60;1.90;;;;;;;16.73;70.98;155659.28;4998995;28;20457;-78
2023/08/07 11:13:25;;;;;;;2.63;1.50;;;;;;;16.81;69.78;155681.38;4983554;28;20485;-78
2023/08/07 11:15:52;;;;;;;2.50;1.77;;;;;;;16.86;72.19;155694.41;5012933;28;20445;-78
2023/08/07 11:18:19;;;;;;;4.03;1.73;;;;;;;16.77;70.24;155670.97;4998136;28;20454;-78
2023/08/07 11:20:47;;;;;;;2.10;1.70;;;;;;;16.76;70.19;155667.09;5013306;28;20460;-78